createdAt,value
2023-05-14T00:00:55.632Z,0.00
2023-05-14T00:01:55.609Z,0.00
2023-05-14T00:16:04.120Z,0.00
2023-05-14T00:46:27.313Z,0.00
2023-05-14T01:55:26.140Z,0.00
2023-05-14T02:26:40.726Z,0.00
2023-05-14T02:45:56.294Z,0.00
2023-05-14T04:15:56.206Z,50.62
2023-05-14T04:15:59.368Z,50.62
2023-05-14T04:17:00.269Z,50.62
2023-05-14T04:17:59.302Z,50.62
2023-05-14T04:18:59.872Z,56.25
2023-05-14T04:19:59.125Z,56.25
2023-05-14T04:20:59.113Z,56.25
2023-05-14T04:21:59.108Z,56.25
2023-05-14T04:22:59.224Z,56.25
2023-05-14T04:23:59.104Z,61.88
2023-05-14T04:24:59.074Z,61.88
2023-05-14T04:25:59.035Z,61.88
2023-05-14T04:26:59.042Z,61.88
2023-05-14T04:27:59.068Z,67.50
2023-05-14T04:28:59.013Z,67.50
2023-05-14T04:29:59.035Z,67.50
2023-05-14T04:30:58.973Z,67.50
2023-05-14T04:31:59.062Z,67.50
2023-05-14T04:32:59.058Z,67.50
2023-05-14T04:33:58.951Z,67.50
2023-05-14T04:34:58.956Z,73.12
2023-05-14T04:35:58.973Z,73.12
2023-05-14T04:36:58.915Z,73.12
2023-05-14T04:37:58.945Z,73.12
2023-05-14T04:38:58.915Z,73.12
2023-05-14T04:39:58.898Z,73.12
2023-05-14T04:40:58.915Z,73.12
2023-05-14T04:41:58.864Z,78.75
2023-05-14T04:42:58.885Z,78.75
2023-05-14T04:43:58.911Z,78.75
2023-05-14T04:44:58.855Z,78.75
2023-05-14T04:45:58.835Z,78.75
2023-05-14T04:46:58.820Z,78.75
2023-05-14T04:47:58.860Z,78.75
2023-05-14T04:48:58.787Z,78.75
2023-05-14T04:49:58.816Z,84.38
2023-05-14T04:50:58.786Z,84.38
2023-05-14T04:51:58.772Z,84.38
2023-05-14T04:52:58.788Z,90.00
2023-05-14T04:53:58.811Z,90.00
2023-05-14T04:54:58.825Z,90.00
2023-05-14T04:55:58.735Z,90.00
2023-05-14T04:56:58.712Z,95.62
2023-05-14T04:57:58.717Z,95.62
2023-05-14T04:58:58.692Z,95.62
2023-05-14T04:59:58.716Z,95.62
2023-05-14T05:00:58.692Z,95.62
2023-05-14T05:01:58.683Z,101.25
2023-05-14T05:02:58.804Z,101.25
2023-05-14T05:03:58.685Z,101.25
2023-05-14T05:04:58.679Z,101.25
2023-05-14T05:05:58.611Z,101.25
2023-05-14T05:06:58.651Z,101.25
2023-05-14T05:07:58.632Z,101.25
2023-05-14T05:09:00.634Z,101.25
2023-05-14T05:09:58.576Z,101.25
2023-05-14T05:10:58.589Z,106.88
2023-05-14T05:11:58.548Z,106.88
2023-05-14T05:12:58.546Z,106.88
2023-05-14T05:13:58.555Z,106.88
2023-05-14T05:14:58.810Z,106.88
2023-05-14T05:15:58.521Z,106.88
2023-05-14T05:16:58.517Z,112.50
2023-05-14T05:17:58.512Z,112.50
2023-05-14T05:18:58.517Z,112.50
2023-05-14T05:19:58.490Z,112.50
2023-05-14T05:20:58.439Z,112.50
2023-05-14T05:21:58.517Z,112.50
2023-05-14T05:22:58.428Z,112.50
2023-05-14T05:23:59.981Z,112.50
2023-05-14T05:24:58.482Z,112.50
2023-05-14T05:25:58.451Z,112.50
2023-05-14T05:26:58.459Z,112.50
2023-05-14T05:27:58.423Z,112.50
2023-05-14T05:28:58.421Z,118.12
2023-05-14T05:29:59.218Z,118.12
2023-05-14T05:30:58.609Z,118.12
2023-05-14T05:31:58.474Z,118.12
2023-05-14T05:32:58.566Z,118.12
2023-05-14T05:33:58.449Z,118.12
2023-05-14T05:34:58.384Z,123.75
2023-05-14T05:35:58.436Z,123.75
2023-05-14T05:36:58.296Z,129.38
2023-05-14T05:37:59.842Z,129.38
2023-05-14T05:38:58.332Z,135.00
2023-05-14T05:39:58.291Z,135.00
2023-05-14T05:40:58.291Z,135.00
2023-05-14T05:41:58.347Z,140.62
2023-05-14T05:42:58.273Z,140.62
2023-05-14T05:43:58.204Z,140.62
2023-05-14T05:44:58.324Z,140.62
2023-05-14T05:45:58.388Z,151.88
2023-05-14T05:47:01.135Z,146.25
2023-05-14T05:47:59.936Z,146.25
2023-05-14T05:48:59.687Z,146.25
2023-05-14T05:49:58.251Z,151.88
2023-05-14T05:50:59.729Z,151.88
2023-05-14T05:51:59.558Z,157.50
2023-05-14T05:53:00.027Z,157.50
2023-05-14T05:53:59.796Z,163.12
2023-05-14T05:54:58.402Z,163.12
2023-05-14T05:55:58.389Z,168.75
2023-05-14T05:56:58.199Z,168.75
2023-05-14T05:57:59.615Z,174.38
2023-05-14T05:58:58.129Z,174.38
2023-05-14T05:59:58.120Z,180.00
2023-05-14T06:00:58.035Z,185.62
2023-05-14T06:01:58.095Z,185.62
2023-05-14T06:02:58.100Z,185.62
2023-05-14T06:03:59.337Z,191.25
2023-05-14T06:04:59.605Z,191.25
2023-05-14T06:05:58.069Z,196.88
2023-05-14T06:06:59.358Z,196.88
2023-05-14T06:07:59.462Z,202.50
2023-05-14T06:08:57.944Z,202.50
2023-05-14T06:09:57.945Z,208.12
2023-05-14T06:10:57.888Z,208.12
2023-05-14T06:11:57.911Z,208.12
2023-05-14T06:12:57.886Z,208.12
2023-05-14T06:13:57.889Z,208.12
2023-05-14T06:14:57.952Z,208.12
2023-05-14T06:15:57.958Z,208.12
2023-05-14T06:17:00.597Z,208.12
2023-05-14T06:17:59.433Z,213.75
2023-05-14T06:18:58.252Z,213.75
2023-05-14T06:19:57.882Z,219.38
2023-05-14T06:20:57.782Z,219.38
2023-05-14T06:21:57.812Z,225.00
2023-05-14T06:22:57.910Z,230.62
2023-05-14T06:23:57.805Z,230.62
2023-05-14T06:24:57.842Z,236.25
2023-05-14T06:25:57.730Z,241.88
2023-05-14T06:26:58.803Z,241.88
2023-05-14T06:28:00.602Z,241.88
2023-05-14T06:28:59.079Z,247.50
2023-05-14T06:29:57.771Z,253.12
2023-05-14T06:30:57.737Z,253.12
2023-05-14T06:31:57.766Z,258.75
2023-05-14T06:32:57.795Z,264.38
2023-05-14T06:33:57.687Z,270.00
2023-05-14T06:34:57.755Z,275.62
2023-05-14T06:35:57.669Z,281.25
2023-05-14T06:36:57.683Z,292.50
2023-05-14T06:37:57.800Z,292.50
2023-05-14T06:38:57.663Z,303.75
2023-05-14T06:39:57.967Z,309.38
2023-05-14T06:40:58.621Z,320.62
2023-05-14T06:41:57.536Z,326.25
2023-05-14T06:42:57.605Z,337.50
2023-05-14T06:43:57.547Z,348.75
2023-05-14T06:44:57.493Z,360.00
2023-05-14T06:45:57.593Z,376.88
2023-05-14T06:46:57.507Z,393.75
2023-05-14T06:47:57.636Z,416.25
2023-05-14T06:48:59.459Z,450.00
2023-05-14T06:49:58.462Z,489.38
2023-05-14T06:50:57.465Z,534.38
2023-05-14T06:51:57.476Z,573.75
2023-05-14T06:52:57.472Z,607.50
2023-05-14T06:53:57.447Z,646.88
2023-05-14T06:54:57.482Z,680.62
2023-05-14T06:55:57.528Z,697.50
2023-05-14T06:56:57.456Z,703.12
2023-05-14T06:59:21.679Z,714.38
2023-05-14T06:59:23.227Z,703.12
2023-05-14T07:00:23.285Z,686.25
2023-05-14T07:01:24.240Z,663.75
2023-05-14T07:03:48.211Z,641.25
2023-05-14T07:03:49.743Z,613.12
2023-05-14T07:04:49.809Z,601.88
2023-05-14T07:05:49.696Z,590.62
2023-05-14T07:06:50.285Z,585.00
2023-05-14T07:07:49.677Z,585.00
2023-05-14T07:08:49.672Z,585.00
2023-05-14T07:09:49.662Z,585.00
2023-05-14T07:10:49.802Z,601.88
2023-05-14T07:11:49.664Z,607.50
2023-05-14T07:12:49.615Z,624.38
2023-05-14T07:13:49.641Z,641.25
2023-05-14T07:14:49.629Z,675.00
2023-05-14T07:15:50.069Z,686.25
2023-05-14T07:16:49.798Z,708.75
2023-05-14T07:17:49.784Z,742.50
2023-05-14T07:18:49.613Z,781.88
2023-05-14T07:19:49.661Z,804.38
2023-05-14T07:20:49.604Z,832.50
2023-05-14T07:21:49.561Z,838.12
2023-05-14T07:22:49.557Z,832.50
2023-05-14T07:23:49.576Z,843.75
2023-05-14T07:24:49.597Z,855.00
2023-05-14T07:25:49.773Z,877.50
2023-05-14T07:26:50.933Z,894.38
2023-05-14T07:27:51.140Z,928.12
2023-05-14T07:28:51.402Z,900.00
2023-05-14T07:29:49.932Z,900.00
2023-05-14T07:30:50.832Z,894.38
2023-05-14T07:31:49.652Z,883.12
2023-05-14T07:32:50.899Z,883.12
2023-05-14T07:33:50.956Z,883.12
2023-05-14T07:34:51.112Z,894.38
2023-05-14T07:35:50.384Z,855.00
2023-05-14T07:36:49.415Z,843.75
2023-05-14T07:37:49.422Z,838.12
2023-05-14T07:38:49.360Z,838.12
2023-05-14T07:39:49.339Z,843.75
2023-05-14T07:40:49.365Z,843.75
2023-05-14T07:41:49.393Z,849.38
2023-05-14T07:42:49.375Z,855.00
2023-05-14T07:43:50.788Z,855.00
2023-05-14T07:44:50.352Z,855.00
2023-05-14T07:45:49.405Z,860.62
2023-05-14T07:46:49.303Z,871.88
2023-05-14T07:47:49.494Z,883.12
2023-05-14T07:48:49.354Z,894.38
2023-05-14T07:49:49.581Z,900.00
2023-05-14T07:50:49.777Z,900.00
2023-05-14T07:51:49.228Z,900.00
2023-05-14T07:52:49.294Z,900.00
2023-05-14T07:53:49.273Z,900.00
2023-05-14T07:54:50.583Z,900.00
2023-05-14T07:55:49.187Z,900.00
2023-05-14T07:56:49.232Z,900.00
2023-05-14T07:57:49.861Z,900.00
2023-05-14T07:58:49.173Z,894.38
2023-05-14T07:59:49.206Z,900.00
2023-05-14T08:00:49.114Z,905.62
2023-05-14T08:01:49.107Z,905.62
2023-05-14T08:02:49.241Z,900.00
2023-05-14T08:03:50.233Z,900.00
2023-05-14T08:04:49.105Z,888.75
2023-05-14T08:05:49.109Z,877.50
2023-05-14T08:06:49.145Z,860.62
2023-05-14T08:07:49.111Z,843.75
2023-05-14T08:08:49.334Z,832.50
2023-05-14T08:09:49.280Z,832.50
2023-05-14T08:10:49.541Z,832.50
2023-05-14T08:11:49.693Z,838.12
2023-05-14T08:12:49.300Z,843.75
2023-05-14T08:13:50.382Z,855.00
2023-05-14T08:14:48.974Z,877.50
2023-05-14T08:15:48.943Z,900.00
2023-05-14T08:16:49.106Z,922.50
2023-05-14T08:17:49.086Z,950.62
2023-05-14T08:18:49.020Z,978.75
2023-05-14T08:19:48.962Z,995.62
2023-05-14T08:20:48.966Z,1012.50
2023-05-14T08:21:48.926Z,1018.12
2023-05-14T08:22:48.857Z,1023.75
2023-05-14T08:23:48.901Z,1035.00
2023-05-14T08:24:48.970Z,1046.25
2023-05-14T08:25:49.970Z,1063.12
2023-05-14T08:26:48.900Z,1085.62
2023-05-14T08:27:48.893Z,1119.38
2023-05-14T08:28:48.823Z,1192.50
2023-05-14T08:29:48.786Z,1192.50
2023-05-14T08:30:48.795Z,1186.88
2023-05-14T08:31:48.854Z,1198.12
2023-05-14T08:32:48.848Z,1231.88
2023-05-14T08:33:48.831Z,1276.88
2023-05-14T08:34:49.320Z,1372.50
2023-05-14T08:35:48.763Z,1282.50
2023-05-14T08:36:48.775Z,1310.62
2023-05-14T08:37:50.221Z,1305.00
2023-05-14T08:38:49.338Z,1344.38
2023-05-14T08:39:49.144Z,1445.62
2023-05-14T08:40:48.900Z,1794.38
2023-05-14T08:41:48.707Z,1524.38
2023-05-14T08:42:48.693Z,1473.75
2023-05-14T08:43:48.705Z,1800.00
2023-05-14T08:44:48.758Z,1462.50
2023-05-14T08:45:48.670Z,1473.75
2023-05-14T08:46:48.655Z,1991.25
2023-05-14T08:47:48.809Z,3256.88
2023-05-14T08:48:48.657Z,2205.00
2023-05-14T08:49:49.079Z,3841.88
2023-05-14T08:50:48.565Z,3633.75
2023-05-14T08:51:48.632Z,2508.75
2023-05-14T08:52:48.602Z,2182.50
2023-05-14T08:53:48.557Z,2182.50
2023-05-14T08:54:48.886Z,2812.50
2023-05-14T08:55:48.576Z,3290.62
2023-05-14T08:56:50.520Z,3487.50
2023-05-14T08:57:48.560Z,2356.88
2023-05-14T08:58:48.502Z,1828.12
2023-05-14T08:59:48.511Z,3324.38
2023-05-14T09:00:48.520Z,3560.62
2023-05-14T09:01:48.908Z,3470.62
2023-05-14T09:02:49.395Z,2385.00
2023-05-14T09:03:48.482Z,2311.88
2023-05-14T09:04:48.429Z,2143.12
2023-05-14T09:05:48.421Z,2244.38
2023-05-14T09:06:48.414Z,1395.00
2023-05-14T09:07:48.389Z,1389.38
2023-05-14T09:08:48.412Z,2570.62
2023-05-14T09:09:48.400Z,2356.88
2023-05-14T09:10:48.336Z,1704.38
2023-05-14T09:11:48.343Z,1231.88
2023-05-14T09:12:48.320Z,1445.62
2023-05-14T09:13:48.366Z,1558.12
2023-05-14T09:14:48.502Z,2131.88
2023-05-14T09:15:48.306Z,2047.50
2023-05-14T09:16:48.419Z,1923.75
2023-05-14T09:17:48.335Z,1895.62
2023-05-14T09:18:48.581Z,1321.88
2023-05-14T09:19:48.328Z,1231.88
2023-05-14T09:20:48.300Z,1288.12
2023-05-14T09:21:48.295Z,1788.75
2023-05-14T09:22:48.271Z,1310.62
2023-05-14T09:23:48.228Z,1411.88
2023-05-14T09:24:48.239Z,1333.12
2023-05-14T09:25:48.294Z,1496.25
2023-05-14T09:26:50.630Z,2413.12
2023-05-14T09:27:49.896Z,1665.00
2023-05-14T09:28:48.178Z,1541.25
2023-05-14T09:29:48.201Z,1777.50
2023-05-14T09:30:48.237Z,1833.75
2023-05-14T09:31:48.254Z,2266.88
2023-05-14T09:32:48.150Z,1777.50
2023-05-14T09:33:49.078Z,1788.75
2023-05-14T09:34:49.730Z,2075.62
2023-05-14T09:35:49.159Z,2311.88
2023-05-14T09:36:49.829Z,2750.62
2023-05-14T09:37:48.856Z,2508.75
2023-05-14T09:38:48.150Z,2255.62
2023-05-14T09:39:48.348Z,1963.12
2023-05-14T09:40:48.081Z,2098.12
2023-05-14T09:41:48.061Z,1912.50
2023-05-14T09:42:48.060Z,1788.75
2023-05-14T09:43:47.974Z,1456.88
2023-05-14T09:44:48.041Z,1321.88
2023-05-14T09:45:48.019Z,1839.38
2023-05-14T09:46:48.262Z,1215.00
2023-05-14T09:47:48.203Z,1018.12
2023-05-14T09:48:48.635Z,961.88
2023-05-14T09:49:47.963Z,950.62
2023-05-14T09:50:47.963Z,1001.25
2023-05-14T09:51:48.016Z,1119.38
2023-05-14T09:52:47.969Z,1305.00
2023-05-14T09:53:47.990Z,1406.25
2023-05-14T09:54:47.927Z,1462.50
2023-05-14T09:55:48.193Z,1164.38
2023-05-14T09:56:49.269Z,1338.75
2023-05-14T09:57:48.363Z,1406.25
2023-05-14T09:58:47.872Z,2958.75
2023-05-14T09:59:47.843Z,2463.75
2023-05-14T10:00:47.932Z,3223.12
2023-05-14T10:01:47.902Z,1580.62
2023-05-14T10:02:47.967Z,2947.50
2023-05-14T10:03:47.834Z,3037.50
2023-05-14T10:04:47.857Z,2880.00
2023-05-14T10:05:47.778Z,1715.62
2023-05-14T10:06:47.772Z,1288.12
2023-05-14T10:07:48.214Z,1243.12
2023-05-14T10:08:47.703Z,1310.62
2023-05-14T10:09:47.737Z,1608.75
2023-05-14T10:10:47.808Z,1923.75
2023-05-14T10:11:47.775Z,1777.50
2023-05-14T10:12:47.734Z,2818.12
2023-05-14T10:13:47.685Z,1721.25
2023-05-14T10:14:47.821Z,2120.62
2023-05-14T10:15:47.732Z,2143.12
2023-05-14T10:16:47.649Z,1698.75
2023-05-14T10:17:47.649Z,1749.38
2023-05-14T10:18:47.728Z,1535.62
2023-05-14T10:19:47.592Z,2008.12
2023-05-14T10:20:47.603Z,1946.25
2023-05-14T10:21:47.563Z,1552.50
2023-05-14T10:22:48.046Z,1501.88
2023-05-14T10:23:50.041Z,1558.12
2023-05-14T10:24:48.607Z,1884.38
2023-05-14T10:25:47.706Z,1513.12
2023-05-14T10:26:47.634Z,1226.25
2023-05-14T10:27:47.556Z,1260.00
2023-05-14T10:28:47.731Z,1794.38
2023-05-14T10:29:47.523Z,1794.38
2023-05-14T10:30:47.587Z,2148.75
2023-05-14T10:31:48.383Z,2120.62
2023-05-14T10:32:47.547Z,1040.62
2023-05-14T10:33:47.530Z,1012.50
2023-05-14T10:34:47.461Z,1035.00
2023-05-14T10:35:47.580Z,1203.75
2023-05-14T10:36:47.443Z,1175.62
2023-05-14T10:37:47.379Z,2418.75
2023-05-14T10:38:47.381Z,2756.25
2023-05-14T10:39:47.372Z,2424.38
2023-05-14T10:40:47.354Z,1400.62
2023-05-14T10:41:47.332Z,2486.25
2023-05-14T10:42:47.441Z,2756.25
2023-05-14T10:43:47.356Z,2210.62
2023-05-14T10:44:47.304Z,1901.25
2023-05-14T10:45:47.332Z,2638.12
2023-05-14T10:46:47.430Z,2750.62
2023-05-14T10:47:47.367Z,2767.50
2023-05-14T10:48:47.367Z,2610.00
2023-05-14T10:49:47.321Z,2604.38
2023-05-14T10:50:47.632Z,2542.50
2023-05-14T10:51:47.224Z,2576.25
2023-05-14T10:52:47.951Z,2632.50
2023-05-14T10:53:47.210Z,2615.62
2023-05-14T10:54:47.197Z,2649.38
2023-05-14T10:55:47.204Z,2626.88
2023-05-14T10:56:47.157Z,1276.88
2023-05-14T10:57:47.232Z,2193.75
2023-05-14T10:58:47.273Z,793.12
2023-05-14T10:59:47.113Z,804.38
2023-05-14T11:00:47.122Z,810.00
2023-05-14T11:01:47.107Z,860.62
2023-05-14T11:02:47.235Z,2334.38
2023-05-14T11:03:47.255Z,2491.88
2023-05-14T11:04:47.072Z,1035.00
2023-05-14T11:05:47.056Z,973.12
2023-05-14T11:06:47.027Z,2812.50
2023-05-14T11:07:47.028Z,2559.38
2023-05-14T11:08:47.229Z,2295.00
2023-05-14T11:09:47.022Z,2188.12
2023-05-14T11:10:47.021Z,2604.38
2023-05-14T11:11:46.990Z,2829.38
2023-05-14T11:12:47.046Z,2655.00
2023-05-14T11:13:47.005Z,2548.12
2023-05-14T11:14:47.076Z,2345.62
2023-05-14T11:15:47.338Z,2491.88
2023-05-14T11:16:46.976Z,2238.75
2023-05-14T11:17:46.966Z,2306.25
2023-05-14T11:18:47.043Z,900.00
2023-05-14T11:19:47.899Z,939.38
2023-05-14T11:20:46.897Z,1698.75
2023-05-14T11:21:46.925Z,1929.38
2023-05-14T11:22:46.833Z,1878.75
2023-05-14T11:23:46.843Z,939.38
2023-05-14T11:24:46.850Z,956.25
2023-05-14T11:25:46.844Z,1186.88
2023-05-14T11:26:46.792Z,1350.00
2023-05-14T11:27:46.816Z,1029.38
2023-05-14T11:28:46.790Z,776.25
2023-05-14T11:29:46.802Z,725.62
2023-05-14T11:30:46.783Z,708.75
2023-05-14T11:31:46.870Z,703.12
2023-05-14T11:32:47.163Z,703.12
2023-05-14T11:33:46.798Z,736.88
2023-05-14T11:34:46.809Z,1496.25
2023-05-14T11:35:46.724Z,815.62
2023-05-14T11:36:46.704Z,742.50
2023-05-14T11:37:46.703Z,731.25
2023-05-14T11:38:46.706Z,720.00
2023-05-14T11:39:46.702Z,787.50
2023-05-14T11:40:46.670Z,708.75
2023-05-14T11:41:46.688Z,720.00
2023-05-14T11:42:46.636Z,725.62
2023-05-14T11:43:46.703Z,748.12
2023-05-14T11:44:46.615Z,759.38
2023-05-14T11:45:46.632Z,770.62
2023-05-14T11:46:46.622Z,798.75
2023-05-14T11:47:46.584Z,821.25
2023-05-14T11:48:46.581Z,855.00
2023-05-14T11:49:46.593Z,922.50
2023-05-14T11:50:46.580Z,1215.00
2023-05-14T11:51:46.534Z,1282.50
2023-05-14T11:52:46.569Z,1704.38
2023-05-14T11:53:46.584Z,1265.62
2023-05-14T11:54:46.554Z,933.75
2023-05-14T11:55:46.544Z,894.38
2023-05-14T11:56:46.539Z,911.25
2023-05-14T11:57:46.495Z,933.75
2023-05-14T11:58:46.499Z,961.88
2023-05-14T11:59:46.492Z,1006.88
2023-05-14T12:00:46.480Z,1119.38
2023-05-14T12:01:46.430Z,1603.12
2023-05-14T12:02:47.633Z,2469.38
2023-05-14T12:03:46.569Z,1749.38
2023-05-14T12:04:46.467Z,1456.88
2023-05-14T12:05:46.417Z,1215.00
2023-05-14T12:06:46.399Z,1333.12
2023-05-14T12:07:46.387Z,1063.12
2023-05-14T12:08:46.375Z,973.12
2023-05-14T12:09:46.365Z,995.62
2023-05-14T12:10:46.350Z,961.88
2023-05-14T12:11:46.347Z,984.38
2023-05-14T12:12:46.332Z,1366.88
2023-05-14T12:13:46.304Z,1029.38
2023-05-14T12:14:46.299Z,933.75
2023-05-14T12:15:46.330Z,939.38
2023-05-14T12:16:46.542Z,894.38
2023-05-14T12:17:46.363Z,855.00
2023-05-14T12:18:46.265Z,990.00
2023-05-14T12:19:46.260Z,995.62
2023-05-14T12:20:46.242Z,821.25
2023-05-14T12:21:46.353Z,736.88
2023-05-14T12:22:46.236Z,731.25
2023-05-14T12:23:46.241Z,725.62
2023-05-14T12:24:46.238Z,731.25
2023-05-14T12:25:46.178Z,781.88
2023-05-14T12:26:46.201Z,1057.50
2023-05-14T12:27:46.207Z,928.12
2023-05-14T12:28:46.177Z,1040.62
2023-05-14T12:29:46.149Z,973.12
2023-05-14T12:30:46.157Z,720.00
2023-05-14T12:31:46.243Z,703.12
2023-05-14T12:32:46.227Z,787.50
2023-05-14T12:33:46.100Z,708.75
2023-05-14T12:34:46.114Z,736.88
2023-05-14T12:35:46.128Z,765.00
2023-05-14T12:36:46.119Z,748.12
2023-05-14T12:37:46.133Z,798.75
2023-05-14T12:38:46.107Z,978.75
2023-05-14T12:39:46.845Z,1012.50
2023-05-14T12:40:46.060Z,765.00
2023-05-14T12:41:46.075Z,770.62
2023-05-14T12:42:46.087Z,877.50
2023-05-14T12:43:46.039Z,1018.12
2023-05-14T12:44:45.997Z,1080.00
2023-05-14T12:45:46.091Z,1125.00
2023-05-14T12:46:46.106Z,1085.62
2023-05-14T12:47:46.144Z,1102.50
2023-05-14T12:48:45.952Z,1001.25
2023-05-14T12:49:46.971Z,1040.62
2023-05-14T12:50:45.952Z,1085.62
2023-05-14T12:51:45.941Z,1074.38
2023-05-14T12:52:45.952Z,1080.00
2023-05-14T12:53:45.975Z,1051.88
2023-05-14T12:54:45.967Z,1029.38
2023-05-14T12:55:45.931Z,1001.25
2023-05-14T12:56:45.892Z,973.12
2023-05-14T12:57:45.929Z,950.62
2023-05-14T12:58:45.873Z,922.50
2023-05-14T12:59:45.883Z,900.00
2023-05-14T13:00:45.866Z,759.38
2023-05-14T13:01:46.828Z,832.50
2023-05-14T13:02:45.914Z,928.12
2023-05-14T13:03:45.857Z,900.00
2023-05-14T13:04:45.844Z,798.75
2023-05-14T13:05:45.854Z,776.25
2023-05-14T13:06:45.789Z,821.25
2023-05-14T13:07:45.807Z,883.12
2023-05-14T13:08:45.773Z,843.75
2023-05-14T13:09:46.773Z,765.00
2023-05-14T13:10:45.735Z,798.75
2023-05-14T13:11:45.740Z,759.38
2023-05-14T13:12:45.748Z,731.25
2023-05-14T13:13:45.701Z,736.88
2023-05-14T13:14:45.699Z,765.00
2023-05-14T13:15:45.840Z,826.88
2023-05-14T13:16:45.671Z,832.50
2023-05-14T13:17:45.982Z,815.62
2023-05-14T13:18:45.708Z,821.25
2023-05-14T13:19:45.674Z,815.62
2023-05-14T13:20:45.647Z,731.25
2023-05-14T13:21:45.638Z,781.88
2023-05-14T13:22:46.228Z,748.12
2023-05-14T13:23:45.608Z,731.25
2023-05-14T13:24:45.627Z,725.62
2023-05-14T13:25:46.901Z,714.38
2023-05-14T13:26:45.735Z,703.12
2023-05-14T13:27:45.621Z,675.00
2023-05-14T13:28:46.307Z,680.62
2023-05-14T13:29:45.561Z,663.75
2023-05-14T13:30:45.531Z,669.38
2023-05-14T13:31:45.614Z,669.38
2023-05-14T13:32:45.577Z,646.88
2023-05-14T13:33:45.486Z,624.38
2023-05-14T13:34:45.524Z,596.25
2023-05-14T13:35:45.518Z,534.38
2023-05-14T13:36:45.468Z,500.62
2023-05-14T13:37:45.493Z,500.62
2023-05-14T13:38:45.474Z,500.62
2023-05-14T13:39:45.409Z,495.00
2023-05-14T13:40:45.577Z,495.00
2023-05-14T13:41:46.414Z,495.00
2023-05-14T13:42:45.417Z,495.00
2023-05-14T13:43:45.423Z,489.38
2023-05-14T13:44:45.443Z,511.88
2023-05-14T13:45:45.421Z,528.75
2023-05-14T13:46:45.915Z,523.12
2023-05-14T13:47:45.403Z,528.75
2023-05-14T13:48:45.402Z,528.75
2023-05-14T13:49:45.319Z,534.38
2023-05-14T13:50:45.299Z,540.00
2023-05-14T13:51:45.388Z,551.25
2023-05-14T13:52:45.339Z,562.50
2023-05-14T13:53:45.336Z,579.38
2023-05-14T13:54:45.319Z,573.75
2023-05-14T13:55:46.683Z,562.50
2023-05-14T13:56:45.286Z,568.12
2023-05-14T13:57:45.243Z,579.38
2023-05-14T13:58:45.252Z,585.00
2023-05-14T13:59:45.249Z,585.00
2023-05-14T14:00:45.238Z,590.62
2023-05-14T14:01:45.273Z,590.62
2023-05-14T14:02:45.291Z,613.12
2023-05-14T14:03:45.196Z,630.00
2023-05-14T14:04:45.316Z,646.88
2023-05-14T14:05:45.302Z,630.00
2023-05-14T14:06:45.198Z,646.88
2023-05-14T14:07:45.778Z,641.25
2023-05-14T14:08:45.124Z,528.75
2023-05-14T14:09:45.169Z,523.12
2023-05-14T14:10:45.120Z,517.50
2023-05-14T14:11:52.852Z,506.25
2023-05-14T14:12:46.103Z,511.88
2023-05-14T14:13:46.590Z,511.88
2023-05-14T14:14:46.123Z,511.88
2023-05-14T14:15:45.129Z,511.88
2023-05-14T14:16:45.060Z,506.25
2023-05-14T14:17:45.163Z,500.62
2023-05-14T14:18:45.099Z,495.00
2023-05-14T14:19:45.073Z,478.12
2023-05-14T14:20:45.025Z,461.25
2023-05-14T14:21:45.075Z,450.00
2023-05-14T14:22:45.019Z,438.75
2023-05-14T14:23:44.998Z,427.50
2023-05-14T14:24:45.187Z,421.88
2023-05-14T14:25:45.069Z,416.25
2023-05-14T14:26:45.044Z,416.25
2023-05-14T14:27:45.047Z,416.25
2023-05-14T14:28:44.910Z,416.25
2023-05-14T14:29:45.831Z,416.25
2023-05-14T14:30:46.293Z,410.62
2023-05-14T14:31:45.388Z,410.62
2023-05-14T14:32:45.408Z,405.00
2023-05-14T14:33:46.881Z,405.00
2023-05-14T14:34:45.748Z,405.00
2023-05-14T14:35:45.989Z,405.00
2023-05-14T14:36:44.884Z,410.62
2023-05-14T14:37:44.952Z,416.25
2023-05-14T14:38:44.853Z,421.88
2023-05-14T14:39:44.865Z,421.88
2023-05-14T14:40:44.778Z,416.25
2023-05-14T14:41:44.750Z,410.62
2023-05-14T14:42:44.765Z,405.00
2023-05-14T14:43:44.752Z,405.00
2023-05-14T14:44:44.762Z,405.00
2023-05-14T14:45:45.782Z,405.00
2023-05-14T14:46:44.692Z,405.00
2023-05-14T14:47:44.788Z,405.00
2023-05-14T14:48:44.731Z,399.38
2023-05-14T14:49:44.679Z,399.38
2023-05-14T14:50:45.064Z,399.38
2023-05-14T14:51:44.655Z,399.38
2023-05-14T14:52:45.911Z,405.00
2023-05-14T14:53:45.620Z,410.62
2023-05-14T14:54:44.693Z,421.88
2023-05-14T14:55:44.599Z,421.88
2023-05-14T14:56:44.582Z,421.88
2023-05-14T14:57:45.321Z,421.88
2023-05-14T14:58:44.568Z,416.25
2023-05-14T14:59:44.536Z,410.62
2023-05-14T15:00:44.831Z,410.62
2023-05-14T15:01:44.619Z,405.00
2023-05-14T15:02:45.362Z,410.62
2023-05-14T15:03:44.558Z,405.00
2023-05-14T15:04:44.615Z,405.00
2023-05-14T15:05:44.636Z,393.75
2023-05-14T15:06:44.439Z,388.12
2023-05-14T15:07:45.034Z,382.50
2023-05-14T15:08:45.628Z,371.25
2023-05-14T15:09:44.622Z,360.00
2023-05-14T15:10:44.870Z,348.75
2023-05-14T15:11:44.705Z,337.50
2023-05-14T15:12:45.140Z,331.88
2023-05-14T15:13:44.394Z,331.88
2023-05-14T15:14:44.787Z,331.88
2023-05-14T15:15:44.923Z,331.88
2023-05-14T15:16:44.427Z,326.25
2023-05-14T15:17:44.453Z,326.25
2023-05-14T15:18:44.393Z,309.38
2023-05-14T15:19:44.352Z,303.75
2023-05-14T15:20:44.339Z,298.12
2023-05-14T15:21:44.317Z,298.12
2023-05-14T15:22:44.307Z,298.12
2023-05-14T15:23:44.253Z,298.12
2023-05-14T15:24:45.271Z,298.12
2023-05-14T15:25:44.872Z,303.75
2023-05-14T15:26:44.248Z,309.38
2023-05-14T15:27:44.220Z,309.38
2023-05-14T15:28:44.804Z,309.38
2023-05-14T15:29:44.254Z,303.75
2023-05-14T15:30:44.233Z,303.75
2023-05-14T15:31:44.256Z,298.12
2023-05-14T15:32:44.181Z,298.12
2023-05-14T15:33:44.241Z,298.12
2023-05-14T15:34:44.172Z,303.75
2023-05-14T15:35:44.191Z,309.38
2023-05-14T15:36:44.734Z,315.00
2023-05-14T15:37:44.124Z,315.00
2023-05-14T15:38:44.172Z,320.62
2023-05-14T15:39:44.113Z,326.25
2023-05-14T15:40:44.110Z,326.25
2023-05-14T15:41:44.086Z,326.25
2023-05-14T15:42:44.118Z,331.88
2023-05-14T15:43:44.067Z,331.88
2023-05-14T15:44:44.058Z,331.88
2023-05-14T15:45:44.030Z,337.50
2023-05-14T15:46:44.164Z,337.50
2023-05-14T15:47:44.094Z,343.12
2023-05-14T15:48:44.006Z,348.75
2023-05-14T15:49:44.023Z,354.38
2023-05-14T15:50:44.028Z,360.00
2023-05-14T15:51:43.957Z,360.00
2023-05-14T15:52:44.020Z,360.00
2023-05-14T15:53:43.963Z,354.38
2023-05-14T15:54:44.813Z,354.38
2023-05-14T15:55:43.922Z,348.75
2023-05-14T15:56:43.923Z,388.12
2023-05-14T15:57:43.911Z,354.38
2023-05-14T15:58:43.960Z,343.12
2023-05-14T15:59:43.883Z,343.12
2023-05-14T16:00:44.788Z,348.75
2023-05-14T16:01:43.898Z,348.75
2023-05-14T16:02:43.933Z,354.38
2023-05-14T16:03:43.968Z,360.00
2023-05-14T16:04:43.843Z,360.00
2023-05-14T16:05:43.803Z,360.00
2023-05-14T16:06:43.805Z,360.00
2023-05-14T16:07:43.779Z,354.38
2023-05-14T16:08:43.815Z,354.38
2023-05-14T16:09:43.766Z,348.75
2023-05-14T16:10:43.746Z,343.12
2023-05-14T16:11:43.785Z,337.50
2023-05-14T16:12:43.722Z,337.50
2023-05-14T16:13:43.729Z,331.88
2023-05-14T16:14:43.730Z,354.38
2023-05-14T16:15:43.704Z,331.88
2023-05-14T16:16:43.732Z,360.00
2023-05-14T16:17:43.709Z,360.00
2023-05-14T16:18:43.690Z,354.38
2023-05-14T16:19:43.846Z,348.75
2023-05-14T16:20:43.687Z,315.00
2023-05-14T16:21:43.636Z,320.62
2023-05-14T16:22:43.617Z,298.12
2023-05-14T16:23:43.623Z,326.25
2023-05-14T16:24:43.655Z,292.50
2023-05-14T16:25:43.582Z,303.75
2023-05-14T16:26:43.578Z,286.88
2023-05-14T16:27:43.576Z,320.62
2023-05-14T16:28:43.641Z,275.62
2023-05-14T16:29:43.573Z,264.38
2023-05-14T16:30:43.564Z,281.25
2023-05-14T16:31:43.534Z,298.12